createdAt,value
2022-07-28T00:01:44.421Z,16.30
2022-07-28T00:04:12.860Z,16.30
2022-07-28T00:06:42.561Z,16.10
2022-07-28T00:09:11.077Z,16.10
2022-07-28T00:11:54.115Z,16.00
2022-07-28T00:14:23.333Z,16.00
2022-07-28T00:16:52.578Z,16.00
2022-07-28T00:19:21.390Z,16.00
2022-07-28T00:21:51.059Z,16.00
2022-07-28T00:24:19.471Z,16.10
2022-07-28T00:26:47.659Z,16.10
2022-07-28T00:29:16.207Z,16.10
2022-07-28T00:31:44.616Z,16.00
2022-07-28T00:34:13.354Z,16.10
2022-07-28T00:36:41.930Z,16.00
2022-07-28T00:39:11.745Z,15.90
2022-07-28T00:41:39.937Z,15.90
2022-07-28T00:44:10.490Z,16.00
2022-07-28T00:46:39.268Z,15.90
2022-07-28T00:49:08.080Z,15.90
2022-07-28T00:51:36.695Z,15.90
2022-07-28T00:54:05.369Z,15.90
2022-07-28T00:56:36.157Z,15.90
2022-07-28T00:59:05.532Z,15.80
2022-07-28T01:01:33.969Z,15.80
2022-07-28T01:04:06.528Z,15.80
2022-07-28T01:06:50.665Z,15.80
2022-07-28T01:09:39.033Z,15.80
2022-07-28T01:12:17.145Z,15.80
2022-07-28T01:14:50.929Z,15.90
2022-07-28T01:17:30.248Z,15.90
2022-07-28T01:20:08.088Z,16.00
2022-07-28T01:22:41.313Z,15.90
2022-07-28T01:25:21.133Z,15.90
2022-07-28T01:28:02.637Z,15.90
2022-07-28T01:30:37.894Z,16.00
2022-07-28T01:33:13.225Z,15.90
2022-07-28T01:35:46.112Z,15.80
2022-07-28T01:38:15.610Z,15.80
2022-07-28T01:40:49.926Z,15.80
2022-07-28T01:43:22.645Z,15.90
2022-07-28T01:45:56.125Z,15.80
2022-07-28T01:48:26.173Z,15.80
2022-07-28T01:50:56.455Z,15.80
2022-07-28T01:53:26.165Z,15.70
2022-07-28T01:55:55.765Z,15.60
2022-07-28T01:58:26.212Z,15.50
2022-07-28T02:00:57.860Z,15.50
2022-07-28T02:03:30.123Z,15.50
2022-07-28T02:06:02.880Z,15.40
2022-07-28T02:08:33.749Z,15.40
2022-07-28T02:11:25.900Z,15.50
2022-07-28T02:13:56.249Z,15.50
2022-07-28T02:16:27.373Z,15.40
2022-07-28T02:18:59.194Z,15.30
2022-07-28T02:21:29.059Z,15.30
2022-07-28T02:23:57.873Z,15.40
2022-07-28T02:26:32.733Z,15.40
2022-07-28T02:29:04.479Z,15.40
2022-07-28T02:31:44.218Z,15.30
2022-07-28T02:34:17.469Z,15.20
2022-07-28T02:36:52.359Z,15.30
2022-07-28T02:39:27.021Z,15.20
2022-07-28T02:42:00.192Z,15.20
2022-07-28T02:44:33.041Z,15.30
2022-07-28T02:47:04.776Z,15.30
2022-07-28T02:49:35.242Z,15.20
2022-07-28T02:52:06.467Z,15.20
2022-07-28T02:54:38.645Z,15.20
2022-07-28T02:57:07.982Z,15.10
2022-07-28T02:59:37.536Z,15.20
2022-07-28T03:02:09.295Z,15.20
2022-07-28T03:04:58.894Z,15.10
2022-07-28T03:07:28.532Z,15.20
2022-07-28T03:09:57.489Z,15.10
2022-07-28T03:12:25.662Z,15.00
2022-07-28T03:14:54.251Z,14.90
2022-07-28T03:17:24.112Z,14.80
2022-07-28T03:19:52.249Z,14.80
2022-07-28T03:22:20.622Z,14.90
2022-07-28T03:24:52.150Z,14.90
2022-07-28T03:27:26.006Z,14.90
2022-07-28T03:30:03.134Z,14.90
2022-07-28T03:32:35.822Z,14.90
2022-07-28T03:35:06.622Z,14.80
2022-07-28T03:37:42.259Z,14.70
2022-07-28T03:40:13.091Z,14.60
2022-07-28T03:42:44.165Z,14.60
2022-07-28T03:45:16.101Z,14.60
2022-07-28T03:47:52.639Z,14.60
2022-07-28T03:50:24.112Z,14.60
2022-07-28T03:52:52.732Z,14.60
2022-07-28T03:55:21.670Z,14.60
2022-07-28T03:57:49.906Z,14.60
2022-07-28T04:00:19.652Z,14.50
2022-07-28T04:02:48.568Z,14.30
2022-07-28T04:05:19.584Z,14.20
2022-07-28T04:07:47.721Z,14.20
2022-07-28T04:10:19.317Z,14.20
2022-07-28T04:12:49.089Z,14.20
2022-07-28T04:15:18.618Z,14.10
2022-07-28T04:17:49.788Z,14.20
2022-07-28T04:20:27.613Z,14.10
2022-07-28T04:22:56.718Z,14.10
2022-07-28T04:25:27.138Z,14.10
2022-07-28T04:27:56.094Z,14.20
2022-07-28T04:30:28.085Z,14.10
2022-07-28T04:32:57.261Z,14.10
2022-07-28T04:35:28.544Z,14.10
2022-07-28T04:37:58.630Z,14.20
2022-07-28T04:40:27.785Z,14.20
2022-07-28T04:42:56.515Z,14.10
2022-07-28T04:45:24.930Z,14.10
2022-07-28T04:47:53.308Z,14.10
2022-07-28T04:50:21.788Z,14.20
2022-07-28T04:52:51.522Z,14.20
2022-07-28T04:55:19.768Z,14.20
2022-07-28T04:57:49.882Z,14.20
2022-07-28T05:00:19.524Z,14.20
2022-07-28T05:02:50.426Z,14.20
2022-07-28T05:05:19.053Z,14.40
2022-07-28T05:07:47.350Z,14.60
2022-07-28T05:10:17.342Z,14.80
2022-07-28T05:12:49.362Z,15.00
2022-07-28T05:15:17.585Z,15.10
2022-07-28T05:17:46.575Z,15.20
2022-07-28T05:20:15.022Z,15.40
2022-07-28T05:22:44.835Z,15.50
2022-07-28T05:25:19.411Z,15.60
2022-07-28T05:27:47.728Z,15.80
2022-07-28T05:30:17.144Z,15.80
2022-07-28T05:32:46.419Z,16.00
2022-07-28T05:35:14.922Z,16.20
2022-07-28T05:37:43.904Z,16.30
2022-07-28T05:40:15.058Z,16.50
2022-07-28T05:42:47.323Z,16.80
2022-07-28T05:45:17.702Z,16.90
2022-07-28T05:47:47.434Z,17.10
2022-07-28T05:50:17.110Z,17.30
2022-07-28T05:52:46.492Z,17.50
2022-07-28T05:55:15.553Z,17.60
2022-07-28T05:57:45.829Z,17.50
2022-07-28T06:00:17.034Z,17.30
2022-07-28T06:02:49.484Z,16.90
2022-07-28T06:05:19.029Z,16.70
2022-07-28T06:07:48.234Z,16.60
2022-07-28T06:10:18.765Z,16.50
2022-07-28T06:12:50.575Z,16.30
2022-07-28T06:15:20.808Z,16.40
2022-07-28T06:17:52.657Z,16.40
2022-07-28T06:20:21.713Z,16.30
2022-07-28T06:22:52.342Z,16.30
2022-07-28T06:25:23.450Z,16.20
2022-07-28T06:27:54.860Z,16.20
2022-07-28T06:30:23.587Z,16.30
2022-07-28T06:32:52.695Z,16.40
2022-07-28T06:35:21.125Z,16.30
2022-07-28T06:37:50.360Z,16.30
2022-07-28T06:40:20.829Z,16.50
2022-07-28T06:42:49.565Z,16.60
2022-07-28T06:45:21.848Z,16.60
2022-07-28T06:47:50.554Z,16.70
2022-07-28T06:50:25.821Z,16.80
2022-07-28T06:52:56.085Z,17.10
2022-07-28T06:55:24.356Z,17.20
2022-07-28T06:57:53.046Z,17.40
2022-07-28T07:00:23.187Z,17.60
2022-07-28T07:02:51.595Z,17.70
2022-07-28T07:05:19.884Z,17.70
2022-07-28T07:07:48.064Z,17.40
2022-07-28T07:10:16.372Z,17.40
2022-07-28T07:12:44.909Z,17.40
2022-07-28T07:15:13.747Z,17.70
2022-07-28T07:17:43.490Z,18.10
2022-07-28T07:20:14.381Z,18.50
2022-07-28T07:22:46.765Z,18.80
2022-07-28T07:25:16.288Z,18.90
2022-07-28T07:27:44.884Z,19.10
2022-07-28T07:30:15.200Z,19.40
2022-07-28T07:32:45.450Z,19.40
2022-07-28T07:35:13.897Z,19.30
2022-07-28T07:37:42.560Z,19.10
2022-07-28T07:40:11.277Z,19.10
2022-07-28T07:42:39.772Z,19.40
2022-07-28T07:45:08.983Z,19.90
2022-07-28T07:47:37.318Z,19.90
2022-07-28T07:50:08.008Z,20.20
2022-07-28T07:52:36.419Z,20.50
2022-07-28T07:55:04.915Z,20.80
2022-07-28T07:57:33.382Z,20.80
2022-07-28T08:00:01.649Z,20.90
2022-07-28T08:02:29.812Z,21.00
2022-07-28T08:04:58.078Z,21.00
2022-07-28T08:07:28.217Z,21.00
2022-07-28T08:09:56.447Z,20.90
2022-07-28T08:12:25.543Z,21.00
2022-07-28T08:14:54.734Z,21.30
2022-07-28T08:17:25.916Z,21.30
2022-07-28T08:19:54.900Z,21.40
2022-07-28T08:22:23.600Z,21.70
2022-07-28T08:24:53.262Z,21.80
2022-07-28T08:27:21.973Z,22.00
2022-07-28T08:29:50.439Z,22.20
2022-07-28T08:32:18.523Z,22.50
2022-07-28T08:34:46.966Z,22.40
2022-07-28T08:37:15.853Z,22.40
2022-07-28T08:39:43.951Z,22.40
2022-07-28T08:42:16.642Z,22.50
2022-07-28T08:44:50.784Z,22.70
2022-07-28T08:47:20.813Z,22.70
2022-07-28T08:49:50.405Z,23.00
2022-07-28T08:52:21.809Z,22.70
2022-07-28T08:54:51.874Z,22.40
2022-07-28T08:57:27.170Z,22.40
2022-07-28T08:59:56.101Z,22.30
2022-07-28T09:02:27.124Z,22.40
2022-07-28T09:04:57.034Z,22.60
2022-07-28T09:07:25.778Z,22.70
2022-07-28T09:09:57.414Z,22.40
2022-07-28T09:12:34.816Z,22.50
2022-07-28T09:15:03.649Z,22.50
2022-07-28T09:17:33.515Z,22.50
2022-07-28T09:20:04.285Z,22.80
2022-07-28T09:22:36.256Z,23.10
2022-07-28T09:25:05.897Z,23.40
2022-07-28T09:27:45.343Z,23.60
2022-07-28T09:30:14.169Z,23.70
2022-07-28T09:32:42.322Z,23.80
2022-07-28T09:35:20.782Z,23.50
2022-07-28T09:38:00.659Z,23.60
2022-07-28T09:40:29.203Z,23.60
2022-07-28T09:42:58.854Z,23.40
2022-07-28T09:45:29.252Z,23.20
2022-07-28T09:48:12.160Z,22.90
2022-07-28T09:50:41.740Z,23.00
2022-07-28T09:53:28.806Z,23.10
2022-07-28T09:55:59.655Z,22.80
2022-07-28T09:58:30.750Z,22.80
2022-07-28T10:01:07.131Z,22.80
2022-07-28T10:03:36.785Z,22.60
2022-07-28T10:06:09.363Z,22.60
2022-07-28T10:08:45.262Z,22.60
2022-07-28T10:11:15.772Z,22.50
2022-07-28T10:13:59.646Z,22.50
2022-07-28T10:16:29.653Z,22.70
2022-07-28T10:18:59.519Z,22.80
2022-07-28T10:21:29.595Z,22.90
2022-07-28T10:24:00.380Z,22.70
2022-07-28T10:26:32.440Z,22.70
2022-07-28T10:29:07.684Z,22.70
2022-07-28T10:31:42.337Z,22.80
2022-07-28T10:34:16.449Z,22.60
2022-07-28T10:36:45.861Z,22.60
2022-07-28T10:39:17.087Z,22.70
2022-07-28T10:41:45.467Z,22.90
2022-07-28T10:44:15.916Z,23.00
2022-07-28T10:46:44.768Z,23.00
2022-07-28T10:49:14.525Z,22.80
2022-07-28T10:52:02.706Z,22.70
2022-07-28T10:54:41.071Z,22.70
2022-07-28T10:57:13.389Z,22.60
2022-07-28T11:00:12.685Z,22.60
2022-07-28T11:02:50.521Z,22.80
2022-07-28T11:05:36.455Z,22.90
2022-07-28T11:08:07.702Z,23.00
2022-07-28T11:10:47.323Z,23.20
2022-07-28T11:13:28.869Z,23.00
2022-07-28T11:16:18.440Z,23.20
2022-07-28T11:19:07.698Z,23.10
2022-07-28T11:22:24.986Z,23.40
2022-07-28T11:25:19.149Z,23.50
2022-07-28T11:28:04.335Z,23.90
2022-07-28T11:30:52.949Z,24.30
2022-07-28T11:33:24.967Z,24.70
2022-07-28T11:36:02.230Z,25.00
2022-07-28T11:38:30.688Z,25.20
2022-07-28T11:40:59.076Z,25.00
2022-07-28T11:43:36.899Z,24.80
2022-07-28T11:46:48.115Z,24.60
2022-07-28T11:49:29.949Z,24.70
2022-07-28T11:52:20.808Z,25.00
2022-07-28T11:54:55.377Z,25.30
2022-07-28T11:57:27.977Z,25.20
2022-07-28T12:00:02.020Z,25.00
2022-07-28T12:02:32.852Z,25.20
2022-07-28T12:05:12.566Z,25.50
2022-07-28T12:07:46.170Z,25.70
2022-07-28T12:11:02.911Z,26.00
2022-07-28T12:13:29.790Z,26.20
2022-07-28T12:15:58.622Z,26.30
2022-07-28T12:18:26.967Z,26.40
2022-07-28T12:20:59.450Z,26.70
2022-07-28T12:23:39.409Z,26.50
2022-07-28T12:26:29.830Z,26.20
2022-07-28T12:29:01.087Z,25.90
2022-07-28T12:31:33.189Z,25.70
2022-07-28T12:34:02.080Z,25.50
2022-07-28T12:36:32.031Z,25.50
2022-07-28T12:39:01.473Z,25.50
2022-07-28T12:41:34.284Z,25.60
2022-07-28T12:44:10.459Z,25.60
2022-07-28T12:46:39.201Z,25.80
2022-07-28T12:49:21.881Z,26.10
2022-07-28T12:51:51.940Z,26.00
2022-07-28T12:54:34.583Z,26.00
2022-07-28T12:57:02.905Z,25.90
2022-07-28T12:59:34.425Z,25.80
2022-07-28T13:02:03.114Z,25.60
2022-07-28T13:04:42.917Z,25.60
2022-07-28T13:07:14.030Z,25.80
2022-07-28T13:09:53.187Z,26.10
2022-07-28T13:12:30.922Z,26.30
2022-07-28T13:15:00.660Z,25.90
2022-07-28T13:17:31.886Z,25.80
2022-07-28T13:20:07.799Z,26.00
2022-07-28T13:22:37.411Z,26.00
2022-07-28T13:25:06.204Z,26.00
2022-07-28T13:27:35.493Z,25.60
2022-07-28T13:30:04.010Z,25.50
2022-07-28T13:32:32.469Z,25.70
2022-07-28T13:35:00.877Z,26.00
2022-07-28T13:37:30.409Z,26.40
2022-07-28T13:40:01.040Z,26.40
2022-07-28T13:42:30.435Z,26.40
2022-07-28T13:44:58.629Z,26.40
2022-07-28T13:47:27.356Z,26.70
2022-07-28T13:50:04.713Z,27.10
2022-07-28T13:52:35.146Z,27.20
2022-07-28T13:55:08.372Z,26.90
2022-07-28T13:57:37.166Z,26.80
2022-07-28T14:00:08.141Z,26.80
2022-07-28T14:02:37.289Z,26.70
2022-07-28T14:05:06.180Z,26.80
2022-07-28T14:07:34.682Z,27.00
2022-07-28T14:10:03.400Z,26.70
2022-07-28T14:12:37.430Z,26.20
2022-07-28T14:15:09.892Z,26.20
2022-07-28T14:17:45.242Z,26.40
2022-07-28T14:20:15.715Z,26.60
2022-07-28T14:22:44.332Z,26.40
2022-07-28T14:25:20.968Z,26.30
2022-07-28T14:27:51.989Z,26.30
2022-07-28T14:30:20.655Z,26.40
2022-07-28T14:32:48.874Z,26.60
2022-07-28T14:35:17.594Z,26.50
2022-07-28T14:40:39.203Z,26.10
2022-07-28T14:43:12.229Z,25.90
2022-07-28T14:45:51.523Z,25.80
2022-07-28T14:48:31.669Z,25.80
2022-07-28T14:51:01.461Z,25.60
2022-07-28T14:53:29.604Z,25.80
2022-07-28T14:55:57.981Z,25.90
2022-07-28T14:58:27.560Z,26.00
2022-07-28T15:00:56.100Z,26.20
2022-07-28T15:03:26.817Z,26.10
2022-07-28T15:05:55.005Z,25.90
2022-07-28T15:08:28.994Z,25.80
2022-07-28T15:10:57.757Z,25.80
2022-07-28T15:13:27.345Z,25.80
2022-07-28T15:15:56.901Z,25.60
2022-07-28T15:18:25.386Z,25.60
2022-07-28T15:20:56.032Z,25.40
2022-07-28T15:23:24.457Z,25.40
2022-07-28T15:25:53.311Z,25.30
2022-07-28T15:28:22.114Z,25.20
2022-07-28T15:30:52.972Z,25.00
2022-07-28T15:33:22.023Z,25.00
2022-07-28T15:35:57.799Z,25.10
2022-07-28T15:38:29.572Z,25.10
2022-07-28T15:41:00.113Z,25.20
2022-07-28T15:43:28.565Z,25.10
2022-07-28T15:45:58.469Z,25.00
2022-07-28T15:48:26.733Z,24.70
2022-07-28T15:50:55.534Z,24.60
2022-07-28T15:53:23.898Z,24.60
2022-07-28T15:55:52.143Z,24.60
2022-07-28T15:58:21.469Z,24.70
2022-07-28T16:00:50.197Z,24.80
2022-07-28T16:03:20.504Z,24.70
2022-07-28T16:05:50.487Z,24.90
2022-07-28T16:08:22.553Z,24.90
2022-07-28T16:10:52.676Z,24.70
2022-07-28T16:13:35.549Z,24.70
2022-07-28T16:16:09.851Z,24.60
2022-07-28T16:18:41.447Z,24.60
2022-07-28T16:21:10.631Z,24.60
2022-07-28T16:23:39.359Z,24.60
2022-07-28T16:26:09.593Z,24.40
2022-07-28T16:28:37.963Z,24.30
2022-07-28T16:31:06.537Z,24.30
2022-07-28T16:33:34.864Z,24.20
2022-07-28T16:36:04.909Z,24.10
2022-07-28T16:38:33.445Z,24.10
2022-07-28T16:41:02.218Z,24.30
2022-07-28T16:43:30.589Z,24.30
2022-07-28T16:45:58.982Z,24.30
2022-07-28T16:48:27.695Z,24.10
2022-07-28T16:50:56.660Z,24.10
2022-07-28T16:53:26.126Z,24.10
2022-07-28T16:55:54.987Z,24.10
2022-07-28T16:58:23.229Z,24.10
2022-07-28T17:00:51.678Z,24.20
2022-07-28T17:03:20.254Z,24.10
2022-07-28T17:05:48.513Z,24.20
2022-07-28T17:08:16.696Z,24.30
2022-07-28T17:10:47.781Z,24.30
2022-07-28T17:13:16.883Z,24.40
2022-07-28T17:15:45.003Z,24.30
2022-07-28T17:18:13.411Z,24.10
2022-07-28T17:20:42.485Z,24.00
2022-07-28T17:23:10.716Z,23.90
2022-07-28T17:26:20.870Z,23.80
2022-07-28T17:28:29.684Z,23.60
2022-07-28T17:30:58.687Z,23.50
2022-07-28T17:33:28.045Z,23.40
2022-07-28T17:35:59.853Z,23.30
2022-07-28T17:38:33.003Z,23.20
2022-07-28T17:41:04.309Z,23.10
2022-07-28T17:43:35.016Z,23.10
2022-07-28T17:46:08.272Z,23.10
2022-07-28T17:48:38.416Z,23.10
2022-07-28T17:51:07.107Z,23.10
2022-07-28T17:53:38.330Z,23.10
2022-07-28T17:56:08.934Z,23.20
2022-07-28T17:58:39.275Z,23.20
2022-07-28T18:01:11.979Z,23.20
2022-07-28T18:03:57.872Z,23.20
2022-07-28T18:06:30.399Z,23.20
2022-07-28T18:09:05.951Z,23.20
2022-07-28T18:11:36.060Z,23.20
2022-07-28T18:14:07.700Z,23.20
2022-07-28T18:16:35.919Z,23.20
2022-07-28T18:19:04.160Z,23.30
2022-07-28T18:21:32.517Z,23.30
2022-07-28T18:24:03.986Z,23.30
2022-07-28T18:26:32.159Z,23.40
2022-07-28T18:29:00.517Z,23.30
2022-07-28T18:31:30.362Z,23.20
2022-07-28T18:33:58.532Z,23.10
2022-07-28T18:36:26.830Z,23.10
2022-07-28T18:38:55.229Z,23.10
2022-07-28T18:41:23.454Z,23.00
2022-07-28T18:43:52.513Z,22.90
2022-07-28T18:46:21.041Z,22.90
2022-07-28T18:48:57.282Z,22.80
2022-07-28T18:51:25.793Z,22.80
2022-07-28T18:53:53.998Z,22.80
2022-07-28T18:56:22.293Z,22.70
2022-07-28T18:58:54.138Z,22.70
2022-07-28T19:01:22.362Z,22.70
2022-07-28T19:03:50.625Z,22.70
2022-07-28T19:06:20.733Z,22.50
2022-07-28T19:08:49.174Z,22.40
2022-07-28T19:11:19.942Z,22.30
2022-07-28T19:13:48.542Z,22.30
2022-07-28T19:16:17.023Z,22.30
2022-07-28T19:18:45.761Z,22.20
2022-07-28T19:21:14.868Z,22.10
2022-07-28T19:23:44.539Z,22.10
2022-07-28T19:26:12.776Z,22.10
2022-07-28T19:28:42.333Z,22.10
2022-07-28T19:31:11.001Z,22.10
2022-07-28T19:33:42.893Z,22.10
2022-07-28T19:36:13.744Z,22.10
2022-07-28T19:38:44.957Z,22.00
2022-07-28T19:41:14.411Z,22.00
2022-07-28T19:43:42.961Z,21.80
2022-07-28T19:46:11.618Z,21.80
2022-07-28T19:48:40.339Z,21.60
2022-07-28T19:51:08.540Z,21.60
2022-07-28T19:53:37.856Z,21.60
2022-07-28T19:56:09.235Z,21.60
2022-07-28T19:58:38.298Z,21.50
2022-07-28T20:01:07.327Z,21.30
2022-07-28T20:04:02.523Z,21.20
2022-07-28T20:06:24.958Z,21.20
2022-07-28T20:08:54.106Z,21.20
2022-07-28T20:11:23.980Z,21.10
2022-07-28T20:13:52.242Z,21.10
2022-07-28T20:16:21.140Z,21.10
2022-07-28T20:18:49.672Z,21.00
2022-07-28T20:21:19.478Z,20.90
2022-07-28T20:23:47.707Z,21.00
2022-07-28T20:26:17.293Z,20.90
2022-07-28T20:28:53.567Z,20.90
2022-07-28T20:31:22.058Z,20.90
2022-07-28T20:33:50.991Z,20.80
2022-07-28T20:36:19.304Z,20.70
2022-07-28T20:38:47.971Z,20.70
2022-07-28T20:41:16.485Z,20.70
2022-07-28T20:43:45.373Z,20.70
2022-07-28T20:46:16.489Z,20.60
2022-07-28T20:48:44.754Z,20.60
2022-07-28T20:51:13.091Z,20.50
2022-07-28T20:53:41.552Z,20.40
2022-07-28T20:56:09.902Z,20.40
2022-07-28T20:58:38.298Z,20.40
2022-07-28T21:01:06.730Z,20.40
2022-07-28T21:03:36.524Z,20.40
2022-07-28T21:06:05.003Z,20.40
2022-07-28T21:08:36.529Z,20.40
2022-07-28T21:11:06.415Z,20.40
2022-07-28T21:13:34.754Z,20.30
2022-07-28T21:16:02.976Z,20.30
2022-07-28T21:18:32.064Z,20.40
2022-07-28T21:21:02.820Z,20.30
2022-07-28T21:23:31.383Z,20.30
2022-07-28T21:25:59.975Z,20.20
2022-07-28T21:28:46.170Z,20.20
2022-07-28T21:31:14.649Z,20.30
2022-07-28T21:33:43.059Z,20.30
2022-07-28T21:36:16.780Z,20.30
2022-07-28T21:38:45.805Z,20.30
2022-07-28T21:41:14.223Z,20.20
2022-07-28T21:43:42.709Z,20.10
2022-07-28T21:46:11.956Z,20.10
2022-07-28T21:48:40.300Z,20.10
2022-07-28T21:51:18.138Z,20.10
2022-07-28T21:53:52.664Z,20.00
2022-07-28T21:56:21.270Z,20.00
2022-07-28T21:58:49.594Z,20.00
2022-07-28T22:01:18.208Z,19.90
2022-07-28T22:03:46.813Z,20.00
2022-07-28T22:06:15.006Z,20.00
2022-07-28T22:08:43.467Z,20.00
2022-07-28T22:11:12.956Z,19.90
2022-07-28T22:13:41.293Z,19.90
2022-07-28T22:16:09.700Z,19.90
2022-07-28T22:18:38.004Z,19.90
2022-07-28T22:21:06.394Z,19.80
2022-07-28T22:23:34.736Z,19.70
2022-07-28T22:26:03.151Z,19.80
2022-07-28T22:28:33.012Z,19.80
2022-07-28T22:31:09.626Z,19.80
2022-07-28T22:33:38.411Z,19.70
2022-07-28T22:36:08.681Z,19.70
2022-07-28T22:38:37.234Z,19.70
2022-07-28T22:41:05.436Z,19.70
2022-07-28T22:43:36.919Z,19.60
2022-07-28T22:46:05.252Z,19.70
2022-07-28T22:48:33.639Z,19.70
2022-07-28T22:51:01.985Z,19.70
2022-07-28T22:53:30.123Z,19.60
2022-07-28T22:58:46.340Z,19.60
2022-07-28T23:01:14.596Z,19.60
2022-07-28T23:03:43.784Z,19.70
2022-07-28T23:06:14.554Z,19.70
2022-07-28T23:08:43.314Z,19.60
2022-07-28T23:11:11.569Z,19.60
2022-07-28T23:13:39.902Z,19.60
2022-07-28T23:16:10.775Z,19.50
2022-07-28T23:18:40.715Z,19.60
2022-07-28T23:21:09.277Z,19.60
2022-07-28T23:23:37.973Z,19.60
2022-07-28T23:26:06.574Z,19.50
2022-07-28T23:28:36.435Z,19.50
2022-07-28T23:31:05.211Z,19.40
2022-07-28T23:33:54.649Z,19.40
2022-07-28T23:36:27.466Z,19.40
2022-07-28T23:38:56.796Z,19.30
2022-07-28T23:41:25.374Z,19.30
2022-07-28T23:43:54.114Z,19.30
2022-07-28T23:46:22.839Z,19.20
2022-07-28T23:48:53.976Z,19.20
2022-07-28T23:51:33.421Z,19.20
2022-07-28T23:54:11.212Z,19.20
2022-07-28T23:56:43.070Z,19.20
2022-07-28T23:59:14.123Z,19.10
